Time;durP1;ratioP1;P1;durP2;ratioP2;P2;SDS_P1;SDS_P2;PMS_P1;PMS_P2;Temp;Humidity;BMP_temperature;BMP_pressure;BME280_temperature;BME280_humidity;BME280_pressure;Samples;Min_cycle;Max_cycle;Signal;HPM_P1;HPM_P2
2024/01/08 00:02:26;;;;;;;5.47;2.22;;;1.10;68.40;;;;;;6232599;22;20127;-70
2024/01/08 00:04:55;;;;;;;6.47;2.33;;;1.10;68.40;;;;;;6210426;23;20064;-71
2024/01/08 00:07:22;;;;;;;5.97;2.10;;;1.10;67.80;;;;;;6182679;23;20079;-70
2024/01/08 00:09:48;;;;;;;5.82;2.20;;;1.10;67.50;;;;;;6210880;23;20025;-70
2024/01/08 00:12:15;;;;;;;5.30;1.90;;;1.10;67.20;;;;;;6183708;23;20033;-70
2024/01/08 00:14:42;;;;;;;4.75;2.03;;;1.10;67.30;;;;;;6184223;23;20021;-70
2024/01/08 00:17:09;;;;;;;5.95;2.10;;;1.10;67.50;;;;;;6183610;23;20140;-70
2024/01/08 00:19:36;;;;;;;5.73;2.20;;;1.10;67.60;;;;;;6210716;23;20080;-70
2024/01/08 00:22:05;;;;;;;5.57;2.10;;;1.10;67.20;;;;;;6232835;22;20104;-70
2024/01/08 00:24:32;;;;;;;5.82;2.22;;;1.10;67.10;;;;;;6212609;23;20020;-71
2024/01/08 00:26:59;;;;;;;4.97;1.85;;;1.10;67.90;;;;;;6236616;22;20450;-71
2024/01/08 00:29:26;;;;;;;5.35;2.25;;;1.10;67.50;;;;;;6213358;23;20100;-72
2024/01/08 00:31:53;;;;;;;6.77;2.20;;;1.10;67.20;;;;;;6210081;23;20752;-71
2024/01/08 00:34:20;;;;;;;6.35;2.30;;;1.10;67.40;;;;;;6183900;23;20021;-70
2024/01/08 00:36:47;;;;;;;5.85;2.55;;;1.10;67.60;;;;;;6234136;22;20025;-71
2024/01/08 00:39:16;;;;;;;5.60;1.98;;;1.10;67.20;;;;;;6233643;22;20021;-70
2024/01/08 00:41:43;;;;;;;5.43;2.30;;;1.10;67.40;;;;;;6233171;22;20097;-72
2024/01/08 00:44:10;;;;;;;6.17;2.20;;;1.10;67.50;;;;;;6210922;23;20104;-70
2024/01/08 00:46:37;;;;;;;6.72;2.28;;;1.10;67.40;;;;;;6234370;22;20024;-71
2024/01/08 00:49:04;;;;;;;6.50;2.33;;;1.20;67.60;;;;;;6233751;22;20047;-71
2024/01/08 00:51:31;;;;;;;7.22;2.33;;;1.20;67.30;;;;;;6209466;23;20024;-70
2024/01/08 00:53:57;;;;;;;7.53;2.42;;;1.10;67.20;;;;;;6233300;22;20017;-71
2024/01/08 00:56:26;;;;;;;6.07;2.37;;;1.20;67.00;;;;;;6209625;23;20696;-71
2024/01/08 00:58:53;;;;;;;7.10;2.53;;;1.20;67.20;;;;;;6233602;22;20367;-71
2024/01/08 01:01:20;;;;;;;8.38;2.90;;;1.10;67.20;;;;;;6233247;22;20592;-71
2024/01/08 01:03:47;;;;;;;6.25;2.10;;;1.20;67.70;;;;;;6210168;23;20029;-71
2024/01/08 01:06:20;;;;;;;6.88;2.40;;;1.20;67.90;;;;;;6234552;22;20449;-70
2024/01/08 01:08:47;;;;;;;6.10;2.30;;;1.20;67.20;;;;;;6235397;22;20095;-71
2024/01/08 01:11:15;;;;;;;6.70;2.63;;;1.20;67.20;;;;;;6233213;22;20036;-72
2024/01/08 01:13:43;;;;;;;8.07;2.67;;;1.20;66.80;;;;;;6233541;22;20052;-71
2024/01/08 01:16:10;;;;;;;5.57;2.45;;;1.10;67.50;;;;;;6210510;23;20455;-69
2024/01/08 01:18:37;;;;;;;6.10;2.95;;;1.20;67.60;;;;;;6233579;22;20099;-71
2024/01/08 01:21:04;;;;;;;7.03;2.60;;;1.20;67.70;;;;;;6207175;23;20052;-71
2024/01/08 01:23:32;;;;;;;7.13;2.40;;;1.20;67.70;;;;;;6209887;23;20025;-71
2024/01/08 01:25:59;;;;;;;7.40;2.67;;;1.20;67.70;;;;;;6182823;23;20028;-71
2024/01/08 01:28:26;;;;;;;5.82;2.30;;;1.20;67.50;;;;;;6233354;22;20407;-71
2024/01/08 01:30:55;;;;;;;7.95;3.22;;;1.20;67.70;;;;;;6233907;22;20084;-71
2024/01/08 01:33:22;;;;;;;7.23;2.87;;;1.20;67.50;;;;;;6210759;23;20698;-71
2024/01/08 01:35:49;;;;;;;7.47;3.05;;;1.20;67.80;;;;;;6233423;22;20029;-70
2024/01/08 01:38:16;;;;;;;7.85;3.28;;;1.20;67.90;;;;;;6234268;22;20044;-70
2024/01/08 01:40:46;;;;;;;6.50;2.35;;;1.20;67.40;;;;;;6211163;23;20029;-70
2024/01/08 01:43:25;;;;;;;6.68;2.83;;;1.10;67.20;;;;;;6235296;22;20084;-71
2024/01/08 01:45:57;;;;;;;7.53;3.10;;;1.10;67.30;;;;;;6234496;22;20549;-71
2024/01/08 01:48:24;;;;;;;6.05;2.55;;;1.10;68.80;;;;;;6233277;22;20028;-70
2024/01/08 01:50:52;;;;;;;6.40;2.80;;;1.10;68.30;;;;;;6233229;22;20100;-69
2024/01/08 01:53:20;;;;;;;7.35;2.65;;;1.10;68.50;;;;;;6234415;22;20017;-71
2024/01/08 01:55:47;;;;;;;6.63;2.85;;;1.10;68.40;;;;;;6233199;22;20498;-71
2024/01/08 01:58:15;;;;;;;7.70;2.77;;;1.10;68.30;;;;;;6234407;22;20100;-71
2024/01/08 02:00:43;;;;;;;6.90;2.55;;;1.20;68.00;;;;;;6233680;22;20108;-71
2024/01/08 02:03:11;;;;;;;7.00;2.67;;;1.10;68.10;;;;;;6234654;22;20048;-71
2024/01/08 02:05:39;;;;;;;8.32;3.05;;;1.10;68.00;;;;;;6233055;22;20127;-70
2024/01/08 02:08:07;;;;;;;7.47;3.40;;;1.10;68.10;;;;;;6183249;23;20027;-69
2024/01/08 02:10:35;;;;;;;7.30;2.70;;;1.10;68.30;;;;;;6210002;23;20056;-70
2024/01/08 02:13:03;;;;;;;6.40;2.70;;;1.20;68.10;;;;;;6233615;22;20029;-70
2024/01/08 02:15:29;;;;;;;6.85;3.05;;;1.10;68.70;;;;;;6233804;22;20059;-70
2024/01/08 02:17:56;;;;;;;5.90;2.75;;;1.10;68.50;;;;;;6210154;23;20025;-69
2024/01/08 02:20:25;;;;;;;7.72;2.92;;;1.10;69.10;;;;;;6183037;23;20518;-71
2024/01/08 02:22:53;;;;;;;6.80;2.67;;;1.20;68.70;;;;;;6209280;23;20508;-69
2024/01/08 02:25:20;;;;;;;8.50;3.17;;;1.20;68.30;;;;;;6182336;23;20091;-68
2024/01/08 02:27:47;;;;;;;7.72;3.47;;;1.20;69.60;;;;;;6207826;23;20021;-70
2024/01/08 02:30:14;;;;;;;6.32;3.17;;;1.20;69.00;;;;;;6208745;23;20068;-69
2024/01/08 02:32:41;;;;;;;7.20;3.47;;;1.20;68.90;;;;;;6209769;23;20020;-70
2024/01/08 02:35:09;;;;;;;7.00;3.40;;;1.20;69.00;;;;;;6210539;23;20021;-71
2024/01/08 02:37:36;;;;;;;9.10;3.25;;;1.20;69.50;;;;;;6210025;23;20021;-72
2024/01/08 02:40:05;;;;;;;7.95;3.40;;;1.20;70.10;;;;;;6208986;23;20079;-69
2024/01/08 02:42:32;;;;;;;7.10;2.85;;;1.20;69.30;;;;;;6206889;23;20464;-71
2024/01/08 02:45:00;;;;;;;8.32;3.53;;;1.20;69.80;;;;;;6209082;23;20120;-70
2024/01/08 02:47:27;;;;;;;9.77;3.23;;;1.30;69.60;;;;;;6209887;23;20435;-69
2024/01/08 02:49:54;;;;;;;8.55;3.05;;;1.40;71.10;;;;;;6232595;22;20025;-72
2024/01/08 02:52:21;;;;;;;7.28;3.15;;;1.40;70.70;;;;;;6233555;22;20100;-71
2024/01/08 02:54:48;;;;;;;8.73;3.22;;;1.40;70.20;;;;;;6211444;23;20032;-71
2024/01/08 02:57:16;;;;;;;7.57;3.00;;;1.40;70.00;;;;;;6233927;22;20021;-71
2024/01/08 02:59:43;;;;;;;10.97;3.40;;;1.40;69.20;;;;;;6233856;22;20108;-71
2024/01/08 03:02:10;;;;;;;11.10;3.22;;;1.40;68.90;;;;;;6209769;23;20064;-71
2024/01/08 03:04:37;;;;;;;7.20;3.05;;;1.30;69.00;;;;;;6209194;23;20021;-68
2024/01/08 03:07:04;;;;;;;8.20;3.67;;;1.30;69.20;;;;;;6182674;23;20521;-69
2024/01/08 03:09:31;;;;;;;10.13;4.05;;;1.30;69.90;;;;;;6209534;23;20044;-69
2024/01/08 03:11:58;;;;;;;7.43;3.40;;;1.30;69.80;;;;;;6232719;22;20104;-69
2024/01/08 03:14:26;;;;;;;8.98;3.70;;;1.40;70.00;;;;;;6233124;22;20017;-70
2024/01/08 03:16:53;;;;;;;8.40;3.40;;;1.40;70.30;;;;;;6182882;23;20090;-70
2024/01/08 03:19:20;;;;;;;8.75;3.70;;;1.30;70.20;;;;;;6182960;23;20166;-70
2024/01/08 03:21:47;;;;;;;8.43;3.67;;;1.40;70.90;;;;;;6232246;22;20056;-71
2024/01/08 03:24:14;;;;;;;9.33;4.10;;;1.40;71.20;;;;;;6232885;22;20025;-69
2024/01/08 03:26:41;;;;;;;7.13;3.20;;;1.40;70.40;;;;;;6232517;22;20676;-70
2024/01/08 03:29:08;;;;;;;9.38;3.65;;;1.40;71.20;;;;;;6233290;22;20184;-71
2024/01/08 03:31:42;;;;;;;7.95;3.50;;;1.40;70.70;;;;;;6232926;22;20021;-70
2024/01/08 03:34:09;;;;;;;9.27;3.67;;;1.40;71.20;;;;;;6233572;22;20063;-70
2024/01/08 03:36:36;;;;;;;7.83;3.60;;;1.40;70.90;;;;;;6233089;22;20103;-71
2024/01/08 03:39:03;;;;;;;9.05;3.35;;;1.40;70.50;;;;;;6209714;23;20099;-69
2024/01/08 03:41:30;;;;;;;7.30;3.28;;;1.40;70.70;;;;;;6233086;22;20354;-71
2024/01/08 03:43:57;;;;;;;6.57;2.78;;;1.40;70.20;;;;;;6233891;22;20624;-71
2024/01/08 03:46:24;;;;;;;9.43;3.40;;;1.40;71.20;;;;;;6233456;22;20031;-70
2024/01/08 03:48:53;;;;;;;8.10;3.20;;;1.40;71.60;;;;;;6209953;23;20568;-71
2024/01/08 03:51:19;;;;;;;5.65;2.17;;;1.50;71.40;;;;;;6211018;22;20544;-71
2024/01/08 03:53:46;;;;;;;8.25;3.25;;;1.50;71.10;;;;;;6234626;22;20343;-71
2024/01/08 03:56:13;;;;;;;7.88;2.97;;;1.50;70.90;;;;;;6233387;22;20527;-69
2024/01/08 03:58:40;;;;;;;7.50;3.35;;;1.50;71.40;;;;;;6233962;22;20053;-71
2024/01/08 04:01:07;;;;;;;7.67;3.20;;;1.50;72.40;;;;;;6182919;23;20071;-69
2024/01/08 04:03:34;;;;;;;8.38;3.50;;;1.60;72.20;;;;;;6234737;22;20049;-70
2024/01/08 04:06:02;;;;;;;7.00;3.25;;;1.60;71.70;;;;;;6209895;23;20521;-69
2024/01/08 04:08:29;;;;;;;9.27;2.97;;;1.60;71.50;;;;;;6234406;22;20460;-70
2024/01/08 04:10:56;;;;;;;8.07;2.90;;;1.60;71.20;;;;;;6232883;22;20075;-70
2024/01/08 04:13:23;;;;;;;6.90;3.00;;;1.60;71.40;;;;;;6232363;22;20501;-69
2024/01/08 04:15:50;;;;;;;8.68;2.90;;;1.70;71.80;;;;;;6233448;22;20088;-70
2024/01/08 04:18:18;;;;;;;9.23;3.20;;;1.70;71.20;;;;;;6233494;22;20045;-71
2024/01/08 04:20:45;;;;;;;7.68;3.15;;;1.80;71.30;;;;;;6209069;23;20021;-71
2024/01/08 04:23:13;;;;;;;6.40;2.38;;;1.70;71.10;;;;;;6181874;23;20071;-71
2024/01/08 04:25:40;;;;;;;6.90;2.97;;;1.80;70.90;;;;;;6233154;22;20088;-69
2024/01/08 04:28:08;;;;;;;6.35;2.55;;;1.80;71.10;;;;;;6233354;22;20096;-69
2024/01/08 04:30:35;;;;;;;7.80;3.28;;;1.80;71.30;;;;;;6232138;22;20025;-71
2024/01/08 04:33:02;;;;;;;7.30;3.20;;;1.80;71.10;;;;;;6232803;22;20025;-70
2024/01/08 04:35:29;;;;;;;7.55;3.10;;;1.80;70.80;;;;;;6233633;22;20100;-70
2024/01/08 04:37:56;;;;;;;6.90;3.10;;;1.80;71.30;;;;;;6210060;23;20029;-69
2024/01/08 04:40:25;;;;;;;7.97;2.88;;;1.80;70.80;;;;;;6232516;22;20788;-70
2024/01/08 04:42:52;;;;;;;7.78;3.13;;;1.80;70.30;;;;;;6209663;23;20048;-71
2024/01/08 04:45:19;;;;;;;6.40;2.90;;;1.80;71.70;;;;;;6233419;22;20131;-71
2024/01/08 04:47:46;;;;;;;8.23;3.22;;;1.80;71.20;;;;;;6233230;22;20057;-71
2024/01/08 04:50:13;;;;;;;7.43;2.57;;;1.90;71.40;;;;;;6231852;22;20072;-69
2024/01/08 04:52:40;;;;;;;7.28;2.35;;;1.90;71.10;;;;;;6209111;23;20225;-71
2024/01/08 04:55:07;;;;;;;6.93;2.90;;;1.90;70.80;;;;;;6207641;23;20140;-71
2024/01/08 04:57:35;;;;;;;7.68;2.78;;;1.90;70.10;;;;;;6232652;22;20029;-70
2024/01/08 05:00:03;;;;;;;5.47;2.60;;;1.80;69.70;;;;;;6231981;22;20149;-70
2024/01/08 05:02:31;;;;;;;6.77;2.50;;;1.80;70.00;;;;;;6206786;23;20021;-69
2024/01/08 05:04:58;;;;;;;7.75;3.00;;;1.80;70.80;;;;;;6209068;23;20091;-71
2024/01/08 05:07:25;;;;;;;5.13;2.45;;;1.70;70.20;;;;;;6233481;22;20079;-69
2024/01/08 05:09:52;;;;;;;6.20;2.30;;;1.70;70.10;;;;;;6210373;23;20106;-71
2024/01/08 05:12:19;;;;;;;6.85;2.30;;;1.70;70.60;;;;;;6182178;23;20092;-71
2024/01/08 05:14:48;;;;;;;5.83;2.47;;;1.70;70.20;;;;;;6234014;22;20100;-71
2024/01/08 05:17:15;;;;;;;5.60;2.10;;;1.80;70.50;;;;;;6210256;23;20060;-71
2024/01/08 05:19:42;;;;;;;6.57;2.17;;;1.80;70.20;;;;;;6233735;22;20021;-69
2024/01/08 05:22:09;;;;;;;5.60;2.15;;;1.80;69.80;;;;;;6233538;22;20048;-70
2024/01/08 05:24:36;;;;;;;5.53;2.53;;;1.80;69.80;;;;;;6210471;23;20109;-69
2024/01/08 05:27:03;;;;;;;5.70;1.67;;;1.80;69.20;;;;;;6233166;22;20114;-71
2024/01/08 05:29:30;;;;;;;6.38;2.40;;;1.70;69.00;;;;;;6210911;23;20021;-70
2024/01/08 05:31:59;;;;;;;6.10;2.28;;;1.70;69.30;;;;;;6233732;22;20136;-71
2024/01/08 05:34:26;;;;;;;4.78;1.92;;;1.70;68.70;;;;;;6183794;23;20113;-70
2024/01/08 05:36:53;;;;;;;6.93;2.35;;;1.70;68.30;;;;;;6208679;23;20048;-71
2024/01/08 05:39:20;;;;;;;5.43;1.93;;;1.60;68.70;;;;;;6213154;23;20674;-71
2024/01/08 05:41:47;;;;;;;6.07;2.10;;;1.60;69.10;;;;;;6237859;22;20044;-69
2024/01/08 05:44:14;;;;;;;5.03;2.17;;;1.70;69.50;;;;;;6210506;23;20100;-71
2024/01/08 05:46:42;;;;;;;5.07;1.90;;;1.70;68.50;;;;;;6234726;22;20025;-71
2024/01/08 05:49:11;;;;;;;5.35;1.92;;;1.60;68.10;;;;;;6211689;23;20028;-71
2024/01/08 05:51:38;;;;;;;6.30;2.07;;;1.70;68.60;;;;;;6233996;22;20083;-71
2024/01/08 05:54:05;;;;;;;6.13;2.30;;;1.60;68.20;;;;;;6211176;23;20044;-70
2024/01/08 05:56:32;;;;;;;5.22;2.08;;;1.60;67.90;;;;;;6234469;22;20029;-70
2024/01/08 05:59:00;;;;;;;6.63;2.17;;;1.60;68.30;;;;;;6210991;23;20484;-72
2024/01/08 06:01:27;;;;;;;8.20;2.72;;;1.50;68.40;;;;;;6232651;22;20051;-70
2024/01/08 06:03:54;;;;;;;8.90;2.80;;;1.50;68.20;;;;;;6234221;22;20104;-70
2024/01/08 06:06:22;;;;;;;4.95;2.10;;;1.50;69.50;;;;;;6234159;22;20109;-69
2024/01/08 06:08:49;;;;;;;8.10;2.78;;;1.60;69.40;;;;;;6234371;22;20044;-69
2024/01/08 06:11:17;;;;;;;5.75;2.28;;;1.60;69.00;;;;;;6183751;23;20060;-70
2024/01/08 06:13:44;;;;;;;5.85;1.90;;;1.60;69.10;;;;;;6184631;23;20096;-69
2024/01/08 06:16:15;;;;;;;8.27;2.43;;;1.60;68.60;;;;;;6211514;23;20049;-71
2024/01/08 06:18:42;;;;;;;7.40;2.50;;;1.60;68.80;;;;;;6183101;23;20895;-71
2024/01/08 06:21:09;;;;;;;6.15;2.58;;;1.60;69.10;;;;;;6208517;23;20035;-69
2024/01/08 06:23:38;;;;;;;8.35;2.42;;;1.60;69.00;;;;;;6211167;23;20968;-72
2024/01/08 06:26:05;;;;;;;7.72;3.00;;;1.60;69.00;;;;;;6183686;23;20596;-71
2024/01/08 06:28:32;;;;;;;5.53;2.17;;;1.60;69.20;;;;;;6234220;22;20021;-71
2024/01/08 06:31:03;;;;;;;8.75;2.58;;;1.50;68.80;;;;;;6234127;22;20029;-71
2024/01/08 06:33:30;;;;;;;6.75;2.55;;;1.50;68.90;;;;;;6234774;22;20029;-68
2024/01/08 06:35:57;;;;;;;7.85;2.67;;;1.50;69.00;;;;;;6233780;22;20113;-69
2024/01/08 06:38:25;;;;;;;6.15;2.50;;;1.40;69.30;;;;;;6233949;22;20828;-71
2024/01/08 06:40:53;;;;;;;6.83;2.60;;;1.40;69.40;;;;;;6233982;22;20056;-70
2024/01/08 06:43:20;;;;;;;7.32;2.45;;;1.40;70.00;;;;;;6233750;22;20108;-69
2024/01/08 06:45:47;;;;;;;9.00;2.78;;;1.50;70.70;;;;;;6232873;22;20154;-71
2024/01/08 06:48:14;;;;;;;7.75;2.60;;;1.50;70.70;;;;;;6232894;22;20080;-70
2024/01/08 06:50:41;;;;;;;8.75;2.67;;;1.50;70.00;;;;;;6209106;22;20021;-72
2024/01/08 06:53:08;;;;;;;7.13;2.57;;;1.50;69.90;;;;;;6207123;23;20025;-71
2024/01/08 06:55:35;;;;;;;6.13;2.30;;;1.50;70.30;;;;;;6209173;23;20107;-71
2024/01/08 06:58:04;;;;;;;6.75;2.58;;;1.50;70.30;;;;;;6209764;23;20025;-71
2024/01/08 07:00:30;;;;;;;8.45;2.50;;;1.50;69.80;;;;;;6232605;22;20145;-71
2024/01/08 07:02:57;;;;;;;6.28;2.38;;;1.50;70.10;;;;;;6181227;23;20049;-70
2024/01/08 07:05:24;;;;;;;6.67;2.40;;;1.50;70.10;;;;;;6232940;22;20052;-69
2024/01/08 07:07:52;;;;;;;6.63;2.13;;;1.50;70.20;;;;;;6232430;22;20021;-71
2024/01/08 07:10:19;;;;;;;5.78;2.15;;;1.50;70.40;;;;;;6233133;22;20055;-71
2024/01/08 07:12:46;;;;;;;9.32;2.38;;;1.50;70.30;;;;;;6232830;22;20387;-71
2024/01/08 07:15:37;;;;;;;7.00;2.25;;;1.60;70.60;;;;;;6232864;22;20465;-71
2024/01/08 07:18:04;;;;;;;5.33;2.33;;;1.50;70.10;;;;;;6232630;22;20111;-72
2024/01/08 07:20:31;;;;;;;8.38;2.90;;;1.50;70.30;;;;;;6207539;23;20100;-71
2024/01/08 07:22:58;;;;;;;7.35;2.70;;;1.50;70.30;;;;;;6232834;22;20028;-71
2024/01/08 07:25:25;;;;;;;6.32;2.42;;;1.50;70.00;;;;;;6209149;23;20495;-71
2024/01/08 07:27:52;;;;;;;6.68;2.53;;;1.50;70.10;;;;;;6232128;22;20032;-70
2024/01/08 07:30:20;;;;;;;6.40;2.40;;;1.40;70.30;;;;;;6232717;22;20025;-71
2024/01/08 07:32:49;;;;;;;7.25;2.20;;;1.40;70.00;;;;;;6233831;22;20021;-71
2024/01/08 07:35:16;;;;;;;6.43;2.20;;;1.40;70.70;;;;;;6234432;22;20118;-71
2024/01/08 07:37:43;;;;;;;6.50;1.88;;;1.40;71.20;;;;;;6209848;23;20048;-68
2024/01/08 07:40:10;;;;;;;6.93;2.47;;;1.40;71.60;;;;;;6209143;23;20518;-68
2024/01/08 07:42:37;;;;;;;5.87;2.40;;;1.40;71.20;;;;;;6208692;22;20021;-71
2024/01/08 07:45:05;;;;;;;6.57;2.10;;;1.40;71.60;;;;;;6232019;22;20107;-71
2024/01/08 07:47:32;;;;;;;6.65;2.35;;;1.50;72.10;;;;;;6229398;22;20049;-69
2024/01/08 07:50:01;;;;;;;7.07;2.28;;;1.50;71.10;;;;;;6230301;22;20095;-69
2024/01/08 07:52:28;;;;;;;7.93;2.45;;;1.50;71.20;;;;;;6229272;22;20065;-69
2024/01/08 07:54:56;;;;;;;6.80;2.20;;;1.50;70.70;;;;;;6207255;23;20035;-70
2024/01/08 07:57:23;;;;;;;6.22;2.58;;;1.50;71.10;;;;;;6230359;22;20032;-70
2024/01/08 07:59:50;;;;;;;7.63;2.40;;;1.50;71.20;;;;;;6207622;22;20028;-68
2024/01/08 08:02:17;;;;;;;5.97;2.05;;;1.50;71.30;;;;;;6183370;23;20852;-68
2024/01/08 08:04:44;;;;;;;6.13;1.92;;;1.50;70.90;;;;;;6232814;22;20029;-70
2024/01/08 08:07:12;;;;;;;3.83;1.13;;;1.50;71.20;;;;;;6232474;22;20408;-69
2024/01/08 08:09:39;;;;;;;6.45;2.13;;;1.50;71.20;;;;;;6231617;22;20021;-70
2024/01/08 08:12:07;;;;;;;5.63;2.10;;;1.50;70.90;;;;;;6230580;22;20075;-70
2024/01/08 08:14:35;;;;;;;5.45;1.83;;;1.40;70.80;;;;;;6232478;22;20021;-70
2024/01/08 08:17:02;;;;;;;6.13;2.17;;;1.50;71.30;;;;;;6181553;23;20029;-71
2024/01/08 08:19:29;;;;;;;5.83;2.00;;;1.50;70.70;;;;;;6232798;22;20044;-72
2024/01/08 08:21:57;;;;;;;6.47;1.80;;;1.50;71.40;;;;;;6208779;23;20115;-71
2024/01/08 08:24:25;;;;;;;5.85;2.35;;;1.50;70.90;;;;;;6207000;23;20092;-69
2024/01/08 08:26:52;;;;;;;6.72;1.60;;;1.50;71.70;;;;;;6232919;22;20025;-70
2024/01/08 08:29:19;;;;;;;6.30;1.83;;;1.50;71.50;;;;;;6233198;22;20060;-70
2024/01/08 08:31:46;;;;;;;6.57;3.00;;;1.50;72.60;;;;;;6179300;23;20056;-71
2024/01/08 08:34:13;;;;;;;6.10;1.83;;;1.50;72.30;;;;;;6231663;22;20131;-68
2024/01/08 08:36:41;;;;;;;5.32;1.80;;;1.50;71.60;;;;;;6231864;22;20028;-70
2024/01/08 08:39:08;;;;;;;5.55;2.20;;;1.50;71.40;;;;;;6208694;23;20057;-71
2024/01/08 08:41:37;;;;;;;5.05;1.70;;;1.50;71.20;;;;;;6231919;22;20111;-69
2024/01/08 08:44:04;;;;;;;6.30;1.90;;;1.50;70.80;;;;;;6210265;22;20504;-71
2024/01/08 08:46:31;;;;;;;6.18;1.73;;;1.50;71.00;;;;;;6207044;23;20108;-71
2024/01/08 08:48:58;;;;;;;4.43;1.80;;;1.50;71.10;;;;;;6234245;22;20640;-71
2024/01/08 08:51:25;;;;;;;5.68;1.63;;;1.40;71.40;;;;;;6234289;22;20198;-71
2024/01/08 08:53:52;;;;;;;4.93;1.65;;;1.40;71.80;;;;;;6232760;22;20029;-69
2024/01/08 08:56:19;;;;;;;5.07;1.80;;;1.50;71.30;;;;;;6211634;23;20124;-71
2024/01/08 08:58:48;;;;;;;5.57;2.28;;;1.50;70.70;;;;;;6211218;23;20020;-70
2024/01/08 09:01:15;;;;;;;4.97;1.70;;;1.40;70.80;;;;;;6211113;23;20059;-69
2024/01/08 09:03:43;;;;;;;6.05;2.30;;;1.40;71.00;;;;;;6233849;22;20060;-68
2024/01/08 09:06:10;;;;;;;6.25;2.00;;;1.40;70.50;;;;;;6234668;22;20064;-68
2024/01/08 09:08:37;;;;;;;7.27;2.07;;;1.40;71.10;;;;;;6209074;23;20028;-71
2024/01/08 09:11:04;;;;;;;6.03;1.98;;;1.40;71.00;;;;;;6209722;23;20021;-70
2024/01/08 09:13:32;;;;;;;5.78;2.00;;;1.50;71.30;;;;;;6208329;23;20036;-71
2024/01/08 09:16:00;;;;;;;6.53;2.15;;;1.50;71.20;;;;;;6232801;22;20075;-71
2024/01/08 09:18:27;;;;;;;4.70;1.50;;;1.40;70.70;;;;;;6233376;22;20021;-71
2024/01/08 09:20:55;;;;;;;5.63;1.80;;;1.40;70.70;;;;;;6183408;23;20049;-68
2024/01/08 09:23:22;;;;;;;6.28;1.92;;;1.40;71.50;;;;;;6211200;23;20029;-71
2024/01/08 09:25:49;;;;;;;4.85;1.38;;;1.40;71.50;;;;;;6211767;23;20037;-72
2024/01/08 09:28:16;;;;;;;4.47;1.70;;;1.40;71.50;;;;;;6184042;23;20537;-71
2024/01/08 09:30:43;;;;;;;5.90;2.10;;;1.40;70.90;;;;;;6184039;23;20119;-71
2024/01/08 09:33:12;;;;;;;6.80;1.80;;;1.40;70.80;;;;;;6234656;22;20044;-71
2024/01/08 09:35:39;;;;;;;4.72;1.40;;;1.40;71.30;;;;;;6233723;22;20017;-71
2024/01/08 09:38:06;;;;;;;4.97;1.98;;;1.40;72.40;;;;;;6232438;22;20466;-68
2024/01/08 09:40:33;;;;;;;5.05;1.75;;;1.40;71.50;;;;;;6232723;22;20104;-72
2024/01/08 09:43:06;;;;;;;4.82;1.60;;;1.40;71.40;;;;;;6233508;22;20075;-69
2024/01/08 09:45:33;;;;;;;6.27;1.93;;;1.40;71.30;;;;;;6207756;22;20021;-70
2024/01/08 09:48:02;;;;;;;5.60;1.60;;;1.40;71.30;;;;;;6229011;22;20020;-69
2024/01/08 09:50:30;;;;;;;4.38;1.65;;;1.40;71.30;;;;;;6231858;22;20853;-70
2024/01/08 09:52:58;;;;;;;5.93;1.70;;;1.40;71.20;;;;;;6206373;22;20029;-71
2024/01/08 09:55:26;;;;;;;5.70;1.92;;;1.40;71.10;;;;;;6229710;22;20029;-70
2024/01/08 09:57:53;;;;;;;6.50;1.70;;;1.40;70.70;;;;;;6230221;22;21052;-69
2024/01/08 10:00:21;;;;;;;6.68;1.70;;;1.40;71.10;;;;;;6228513;22;20040;-70
2024/01/08 10:02:55;;;;;;;5.65;2.20;;;1.40;71.90;;;;;;6230753;22;20029;-70
2024/01/08 10:05:23;;;;;;;6.72;1.77;;;1.40;71.10;;;;;;6230537;22;20087;-69
2024/01/08 10:07:52;;;;;;;5.25;1.88;;;1.40;71.20;;;;;;6231409;22;20055;-69
2024/01/08 10:10:22;;;;;;;6.13;1.60;;;1.40;71.80;;;;;;6228018;22;20488;-69
2024/01/08 10:12:51;;;;;;;5.07;1.65;;;1.50;71.70;;;;;;6229142;22;20393;-72
2024/01/08 10:15:18;;;;;;;4.90;1.48;;;1.50;71.60;;;;;;6228420;22;20051;-72
2024/01/08 10:17:49;;;;;;;4.45;1.67;;;1.50;71.50;;;;;;6178129;23;20020;-69
2024/01/08 10:20:16;;;;;;;5.35;1.80;;;1.50;71.40;;;;;;6228448;22;20096;-68
2024/01/08 10:22:44;;;;;;;6.57;2.00;;;1.50;70.90;;;;;;6229584;22;20061;-69
2024/01/08 10:25:21;;;;;;;5.43;1.80;;;1.50;70.20;;;;;;6182234;23;20021;-69
2024/01/08 10:27:48;;;;;;;9.27;1.88;;;1.40;69.80;;;;;;6230282;22;20032;-70
2024/01/08 10:30:16;;;;;;;7.53;2.25;;;1.40;71.20;;;;;;6205141;23;20466;-70
2024/01/08 10:32:44;;;;;;;5.55;1.70;;;1.40;70.80;;;;;;6231424;22;20079;-72
2024/01/08 10:35:11;;;;;;;5.67;2.00;;;1.40;70.60;;;;;;6208491;23;20107;-72
2024/01/08 10:37:40;;;;;;;6.13;2.00;;;1.40;70.70;;;;;;6205784;23;20088;-70
2024/01/08 10:40:09;;;;;;;6.03;2.00;;;1.40;70.60;;;;;;6206964;23;20399;-74
2024/01/08 10:42:40;;;;;;;6.25;1.85;;;1.40;70.20;;;;;;6230306;22;20064;-70
2024/01/08 10:45:08;;;;;;;4.93;1.42;;;1.40;70.10;;;;;;6230870;22;20661;-72
2024/01/08 10:47:38;;;;;;;8.30;1.90;;;1.40;70.00;;;;;;6226585;22;20076;-72
2024/01/08 10:50:06;;;;;;;7.22;1.73;;;1.40;69.90;;;;;;6225627;22;20025;-72
2024/01/08 10:52:35;;;;;;;4.80;1.60;;;1.40;69.70;;;;;;6229582;22;20025;-72
2024/01/08 10:55:02;;;;;;;4.15;1.20;;;1.40;70.50;;;;;;6231664;22;20025;-71
2024/01/08 10:57:36;;;;;;;4.47;1.48;;;1.40;72.40;;;;;;6207086;23;20029;-69
2024/01/08 11:00:09;;;;;;;4.77;1.30;;;1.40;71.10;;;;;;6202454;23;20029;-69
2024/01/08 11:02:37;;;;;;;6.15;1.80;;;1.40;70.40;;;;;;6205531;23;20028;-71
2024/01/08 11:05:05;;;;;;;11.77;2.00;;;1.40;69.70;;;;;;6230480;22;20028;-71
2024/01/08 11:07:36;;;;;;;8.70;1.92;;;1.40;69.00;;;;;;6205991;23;20776;-71
2024/01/08 11:10:06;;;;;;;5.28;1.35;;;1.40;68.10;;;;;;6230341;22;20091;-71
2024/01/08 11:12:36;;;;;;;5.20;1.63;;;1.40;70.20;;;;;;6205700;23;20064;-69
2024/01/08 11:15:05;;;;;;;6.53;2.42;;;1.40;68.60;;;;;;6231700;22;20051;-70
2024/01/08 11:17:33;;;;;;;4.30;1.27;;;1.40;67.90;;;;;;6232817;22;20080;-70
2024/01/08 11:20:05;;;;;;;4.68;1.70;;;1.40;67.50;;;;;;6231290;22;20096;-72
2024/01/08 11:22:33;;;;;;;6.60;2.17;;;1.20;67.50;;;;;;6232377;22;20031;-71
2024/01/08 11:25:00;;;;;;;4.93;1.80;;;1.20;67.60;;;;;;6230713;22;20047;-72
2024/01/08 11:27:27;;;;;;;5.38;1.67;;;1.10;67.70;;;;;;6204180;23;20029;-72
2024/01/08 11:29:58;;;;;;;6.05;1.95;;;1.10;68.30;;;;;;6205031;23;20024;-69
2024/01/08 11:33:00;;;;;;;6.38;1.80;;;1.10;68.90;;;;;;6202455;23;20033;-71
2024/01/08 11:35:30;;;;;;;5.13;1.77;;;1.10;69.30;;;;;;6229291;22;20766;-72
2024/01/08 11:38:27;;;;;;;6.03;1.70;;;1.10;69.50;;;;;;6230309;22;20277;-69
2024/01/08 11:40:55;;;;;;;4.00;1.30;;;1.10;68.90;;;;;;6177378;23;20021;-70
2024/01/08 11:43:22;;;;;;;6.07;2.10;;;1.10;68.60;;;;;;6204557;23;20036;-69
2024/01/08 11:45:49;;;;;;;6.32;2.33;;;1.10;68.40;;;;;;6227256;22;20164;-71
2024/01/08 11:48:18;;;;;;;6.05;1.98;;;1.20;68.20;;;;;;6204704;23;20021;-71
2024/01/08 11:50:45;;;;;;;6.50;2.03;;;1.20;68.20;;;;;;6201553;23;20027;-70
2024/01/08 11:53:13;;;;;;;5.57;2.00;;;1.10;67.60;;;;;;6204694;23;20032;-70
2024/01/08 11:55:41;;;;;;;6.05;1.63;;;1.10;67.50;;;;;;6204526;23;20056;-71
2024/01/08 11:58:09;;;;;;;4.38;1.30;;;1.10;67.30;;;;;;6230523;22;20025;-71
2024/01/08 12:00:36;;;;;;;5.45;1.85;;;1.10;67.80;;;;;;6229604;22;20056;-73
2024/01/08 12:03:05;;;;;;;5.53;2.20;;;1.10;67.50;;;;;;6230960;22;20029;-71
2024/01/08 12:05:33;;;;;;;5.28;1.70;;;1.10;67.70;;;;;;6230928;22;20025;-72
2024/01/08 12:08:01;;;;;;;7.90;2.20;;;1.10;68.40;;;;;;6231492;22;20509;-74
2024/01/08 12:10:27;;;;;;;6.20;2.00;;;1.10;69.10;;;;;;6229779;22;20021;-72
2024/01/08 12:12:56;;;;;;;6.65;2.20;;;1.10;68.80;;;;;;6178695;23;20057;-72
2024/01/08 12:15:23;;;;;;;5.33;1.93;;;1.20;68.60;;;;;;6227901;22;20027;-72
2024/01/08 12:17:51;;;;;;;5.88;1.65;;;1.20;68.90;;;;;;6208872;22;20025;-70
2024/01/08 12:20:18;;;;;;;8.32;2.05;;;1.40;69.60;;;;;;6231637;22;20447;-70
2024/01/08 12:22:46;;;;;;;7.03;2.50;;;1.40;69.70;;;;;;6232304;22;20029;-71
2024/01/08 12:25:14;;;;;;;5.55;1.38;;;1.50;68.80;;;;;;6233457;22;20048;-71
2024/01/08 12:27:41;;;;;;;7.03;2.23;;;1.60;69.50;;;;;;6234003;22;20049;-72
2024/01/08 12:30:09;;;;;;;4.72;2.08;;;1.70;69.90;;;;;;6233888;22;20087;-70
2024/01/08 12:32:37;;;;;;;4.03;1.38;;;1.80;69.80;;;;;;6230947;22;20025;-70
2024/01/08 12:35:05;;;;;;;4.47;1.98;;;1.90;68.70;;;;;;6231589;22;20025;-71
2024/01/08 12:37:33;;;;;;;4.22;2.00;;;2.00;67.40;;;;;;6231338;22;20038;-69
2024/01/08 12:40:02;;;;;;;6.63;2.07;;;2.00;68.30;;;;;;6208570;23;20031;-70
2024/01/08 12:42:29;;;;;;;6.18;2.08;;;2.00;67.80;;;;;;6230113;22;20104;-71
2024/01/08 12:44:56;;;;;;;6.05;2.20;;;2.00;68.10;;;;;;6229957;22;20108;-70
2024/01/08 12:47:23;;;;;;;5.90;1.98;;;2.10;67.50;;;;;;6231023;22;20017;-72
2024/01/08 12:49:50;;;;;;;6.35;2.22;;;2.10;66.70;;;;;;6182943;23;20052;-71
2024/01/08 12:52:18;;;;;;;5.20;1.87;;;2.10;67.40;;;;;;6231224;22;20029;-71
2024/01/08 12:54:45;;;;;;;5.57;2.33;;;2.10;66.80;;;;;;6233929;22;20106;-70
2024/01/08 12:57:16;;;;;;;6.22;2.00;;;2.10;66.20;;;;;;6231981;22;20087;-72
2024/01/08 12:59:53;;;;;;;6.85;2.20;;;2.10;65.70;;;;;;6233764;22;20113;-71
2024/01/08 13:02:20;;;;;;;6.57;2.08;;;2.10;66.30;;;;;;6232928;22;20032;-70